createdAt,value
2022-12-26T00:00:53.589Z,12.60
2022-12-26T00:10:41.697Z,12.50
2022-12-26T00:13:37.427Z,12.50
2022-12-26T00:15:55.204Z,12.20
2022-12-26T00:23:16.035Z,12.40
2022-12-26T00:25:42.723Z,12.20
2022-12-26T00:30:38.307Z,12.30
2022-12-26T00:33:04.999Z,12.40
2022-12-26T00:37:58.781Z,12.40
2022-12-26T00:42:52.608Z,12.20
2022-12-26T00:47:46.579Z,12.00
2022-12-26T00:50:15.806Z,12.00
2022-12-26T00:52:42.923Z,11.90
2022-12-26T00:55:10.319Z,12.30
2022-12-26T00:57:37.037Z,12.30
2022-12-26T01:00:05.049Z,12.20
2022-12-26T01:02:40.974Z,12.20
2022-12-26T01:05:10.608Z,12.30
2022-12-26T01:08:22.019Z,12.10
2022-12-26T01:10:25.870Z,12.20
2022-12-26T01:12:52.574Z,12.20
2022-12-26T01:15:19.937Z,12.20
2022-12-26T01:17:46.886Z,12.40
2022-12-26T01:22:40.841Z,12.40
2022-12-26T01:25:08.239Z,12.40
2022-12-26T01:37:23.551Z,12.40
2022-12-26T01:42:20.171Z,12.20
2022-12-26T01:45:04.692Z,12.80
2022-12-26T01:47:46.574Z,12.60
2022-12-26T01:50:44.656Z,12.50
2022-12-26T01:53:27.309Z,12.50
2022-12-26T01:56:01.379Z,13.20
2022-12-26T01:58:35.847Z,12.70
2022-12-26T02:01:05.891Z,12.30
2022-12-26T02:03:51.626Z,12.20
2022-12-26T02:06:18.385Z,12.20
2022-12-26T02:08:46.468Z,12.30
2022-12-26T02:11:27.671Z,12.60
2022-12-26T02:13:56.436Z,12.10
2022-12-26T02:18:52.341Z,12.30
2022-12-26T02:22:07.256Z,12.20
2022-12-26T02:24:57.496Z,12.50
2022-12-26T02:27:36.083Z,13.20
2022-12-26T02:30:37.778Z,12.50
2022-12-26T02:33:16.599Z,12.70
2022-12-26T02:36:32.873Z,12.30
2022-12-26T02:39:44.932Z,12.60
2022-12-26T02:42:28.640Z,12.90
2022-12-26T02:45:20.976Z,12.60
2022-12-26T02:47:50.370Z,12.50
2022-12-26T02:51:03.515Z,13.40
2022-12-26T02:53:54.857Z,12.70
2022-12-26T02:56:55.790Z,12.60
2022-12-26T02:59:57.210Z,12.30
2022-12-26T03:02:57.702Z,12.40
2022-12-26T03:06:21.141Z,12.30
2022-12-26T03:09:28.226Z,12.70
2022-12-26T03:12:19.612Z,12.60
2022-12-26T03:14:55.218Z,13.20
2022-12-26T03:17:30.417Z,12.30
2022-12-26T03:20:26.348Z,12.00
2022-12-26T03:23:11.605Z,12.20
2022-12-26T03:26:16.555Z,12.30
2022-12-26T03:28:44.234Z,12.20
2022-12-26T03:31:13.094Z,12.60
2022-12-26T03:34:04.155Z,12.40
2022-12-26T03:37:07.866Z,12.50
2022-12-26T03:40:14.160Z,12.10
2022-12-26T03:43:33.415Z,12.30
2022-12-26T03:46:18.932Z,12.30
2022-12-26T03:49:23.457Z,12.20
2022-12-26T03:52:26.490Z,11.70
2022-12-26T03:55:48.682Z,12.10
2022-12-26T03:59:09.313Z,12.10
2022-12-26T04:01:58.462Z,12.20
2022-12-26T04:04:45.861Z,12.90
2022-12-26T04:07:56.444Z,12.30
2022-12-26T04:10:50.701Z,12.20
2022-12-26T04:13:42.752Z,12.20
2022-12-26T04:17:01.703Z,12.40
2022-12-26T04:22:49.446Z,12.20
2022-12-26T04:25:49.700Z,12.20
2022-12-26T04:31:31.718Z,12.20
2022-12-26T04:34:20.282Z,12.00
2022-12-26T04:37:17.429Z,12.00
2022-12-26T04:40:05.864Z,12.00
2022-12-26T04:42:52.730Z,10.00
2022-12-26T04:45:21.555Z,12.20
2022-12-26T04:48:09.146Z,12.20
2022-12-26T04:50:35.927Z,11.60
2022-12-26T04:53:02.686Z,11.90
2022-12-26T04:55:33.239Z,12.10
2022-12-26T04:58:00.441Z,11.80
2022-12-26T05:00:28.389Z,11.50
2022-12-26T05:03:18.752Z,11.60
2022-12-26T05:06:06.866Z,11.70
2022-12-26T05:08:56.375Z,10.90
2022-12-26T05:11:23.982Z,11.50
2022-12-26T05:13:55.659Z,10.10
2022-12-26T05:16:43.251Z,11.90
2022-12-26T05:22:23.479Z,11.70
2022-12-26T05:27:58.818Z,11.70
2022-12-26T05:30:25.910Z,11.50
2022-12-26T05:35:39.562Z,11.40
2022-12-26T05:48:00.189Z,11.40
2022-12-26T05:50:27.496Z,11.80
2022-12-26T05:55:21.506Z,11.10
2022-12-26T06:00:15.764Z,11.30
2022-12-26T06:07:37.953Z,11.60
2022-12-26T06:12:34.403Z,10.80
2022-12-26T06:15:01.209Z,11.10
2022-12-26T06:17:27.937Z,11.20
2022-12-26T06:22:21.660Z,11.10
2022-12-26T06:29:42.566Z,10.90
2022-12-26T06:34:36.404Z,11.10
2022-12-26T06:37:03.159Z,11.10
2022-12-26T06:41:57.032Z,10.70
2022-12-26T06:46:50.918Z,10.70
2022-12-26T06:49:17.675Z,10.70
2022-12-26T06:54:11.845Z,10.90
2022-12-26T07:04:02.423Z,10.90
2022-12-26T07:06:37.854Z,10.70
2022-12-26T07:16:35.421Z,10.90
2022-12-26T07:19:02.183Z,11.00
2022-12-26T07:21:29.848Z,10.50
2022-12-26T07:41:33.698Z,10.80
2022-12-26T07:46:27.732Z,10.60
2022-12-26T07:56:16.485Z,10.80
2022-12-26T08:01:10.620Z,11.00
2022-12-26T08:03:38.549Z,10.70
2022-12-26T08:13:29.216Z,10.30
2022-12-26T08:15:56.494Z,10.80
2022-12-26T08:20:50.374Z,10.90
2022-12-26T08:23:17.726Z,10.50
2022-12-26T08:25:44.554Z,11.00
2022-12-26T08:28:11.234Z,10.60
2022-12-26T08:30:41.025Z,10.70
2022-12-26T08:38:03.204Z,10.70
2022-12-26T08:40:42.464Z,10.80
2022-12-26T08:43:31.055Z,11.00
2022-12-26T08:55:52.469Z,11.10
2022-12-26T09:00:51.752Z,11.20
2022-12-26T09:05:49.119Z,11.10
2022-12-26T09:10:42.922Z,11.30
2022-12-26T09:15:37.159Z,11.40
2022-12-26T09:20:32.530Z,11.40
2022-12-26T09:22:59.256Z,11.70
2022-12-26T09:27:58.996Z,11.60
2022-12-26T10:14:34.016Z,12.00
2022-12-26T10:27:16.918Z,12.10
2022-12-26T10:29:52.107Z,12.20
2022-12-26T10:32:30.836Z,12.20
2022-12-26T10:42:37.205Z,12.30
2022-12-26T10:55:31.935Z,12.30
2022-12-26T11:00:42.922Z,12.50
2022-12-26T11:03:18.480Z,12.40
2022-12-26T11:06:07.095Z,12.50
2022-12-26T11:11:10.777Z,12.60
2022-12-26T11:18:48.391Z,12.70
2022-12-26T11:21:18.263Z,13.20
2022-12-26T11:23:49.731Z,12.80
2022-12-26T11:26:22.297Z,12.50
2022-12-26T11:29:11.109Z,12.70
2022-12-26T11:31:41.345Z,12.70
2022-12-26T11:34:17.449Z,12.50
2022-12-26T11:36:49.689Z,12.60
2022-12-26T11:39:30.149Z,12.40
2022-12-26T11:41:58.253Z,12.50
2022-12-26T11:44:33.258Z,12.30
2022-12-26T11:47:13.048Z,12.60
2022-12-26T11:49:45.711Z,12.70
2022-12-26T11:52:34.037Z,13.20
2022-12-26T11:55:01.519Z,12.70
2022-12-26T11:57:31.608Z,12.60
2022-12-26T12:02:43.402Z,12.30
2022-12-26T12:05:26.454Z,12.90
2022-12-26T12:07:56.131Z,12.70
2022-12-26T12:10:43.018Z,12.30
2022-12-26T12:13:38.563Z,12.50
2022-12-26T12:16:23.141Z,12.60
2022-12-26T12:19:01.808Z,12.50
2022-12-26T12:21:39.112Z,12.50
2022-12-26T12:24:24.715Z,12.50
2022-12-26T12:27:27.420Z,12.10
2022-12-26T12:30:15.887Z,12.90
2022-12-26T12:32:55.197Z,12.30
2022-12-26T12:35:50.280Z,12.20
2022-12-26T12:38:49.231Z,12.30
2022-12-26T12:41:44.633Z,12.20
2022-12-26T12:44:46.678Z,12.20
2022-12-26T12:47:20.807Z,12.00
2022-12-26T12:50:12.514Z,11.90
2022-12-26T12:52:54.354Z,12.30
2022-12-26T12:55:41.510Z,12.10
2022-12-26T12:58:15.936Z,12.40
2022-12-26T13:00:47.448Z,12.10
2022-12-26T13:03:32.299Z,12.20
2022-12-26T13:06:11.206Z,12.20
2022-12-26T13:08:45.859Z,12.20
2022-12-26T13:11:24.660Z,11.90
2022-12-26T13:13:57.959Z,12.20
2022-12-26T13:16:28.819Z,12.30
2022-12-26T13:19:07.271Z,12.10
2022-12-26T13:21:39.868Z,12.00
2022-12-26T13:24:26.025Z,11.80
2022-12-26T13:26:58.041Z,11.90
2022-12-26T13:29:38.641Z,11.90
2022-12-26T13:32:22.013Z,11.80
2022-12-26T13:34:50.044Z,12.10
2022-12-26T13:37:35.179Z,11.80
2022-12-26T13:40:15.255Z,11.50
2022-12-26T13:43:32.726Z,11.10
2022-12-26T13:45:59.863Z,11.00
2022-12-26T13:51:04.542Z,11.00
2022-12-26T13:53:33.298Z,10.80
2022-12-26T13:56:18.162Z,10.90
2022-12-26T13:58:53.103Z,10.70
2022-12-26T14:02:04.433Z,10.50
2022-12-26T14:04:52.518Z,10.10
2022-12-26T14:07:41.217Z,10.50
2022-12-26T14:10:46.660Z,10.20
2022-12-26T14:13:50.707Z,10.50
2022-12-26T14:16:37.887Z,10.50
2022-12-26T14:19:38.006Z,10.50
2022-12-26T14:22:07.415Z,10.30
2022-12-26T14:24:57.728Z,10.40
2022-12-26T14:27:33.814Z,10.20
2022-12-26T14:30:24.241Z,10.40
2022-12-26T14:33:28.914Z,10.20
2022-12-26T14:36:18.453Z,10.10
2022-12-26T14:41:34.399Z,10.10
2022-12-26T14:44:33.395Z,9.70
2022-12-26T14:47:02.311Z,10.10
2022-12-26T14:49:35.742Z,9.40
2022-12-26T14:52:24.474Z,9.90
2022-12-26T14:54:55.570Z,9.90
2022-12-26T14:57:47.822Z,10.10
2022-12-26T15:00:24.105Z,10.00
2022-12-26T15:03:01.522Z,9.90
2022-12-26T15:05:41.469Z,9.90
2022-12-26T15:08:30.913Z,9.70
2022-12-26T15:11:27.636Z,9.80
2022-12-26T15:13:57.037Z,9.50
2022-12-26T15:16:55.169Z,9.70
2022-12-26T15:19:46.769Z,9.70
2022-12-26T15:22:13.412Z,9.70
2022-12-26T15:25:17.987Z,9.80
2022-12-26T15:27:48.528Z,9.40
2022-12-26T15:30:22.044Z,9.50
2022-12-26T15:33:16.974Z,9.70
2022-12-26T15:35:53.466Z,9.30
2022-12-26T15:38:37.316Z,9.70
2022-12-26T15:41:18.043Z,9.30
2022-12-26T15:46:22.273Z,9.60
2022-12-26T15:49:17.082Z,9.30
2022-12-26T15:51:43.727Z,9.30
2022-12-26T15:54:16.505Z,9.40
2022-12-26T15:57:13.562Z,9.10
2022-12-26T15:59:52.273Z,9.00
2022-12-26T16:02:47.391Z,8.90
2022-12-26T16:05:31.477Z,8.80
2022-12-26T16:08:29.154Z,9.20
2022-12-26T16:11:42.906Z,9.20
2022-12-26T16:14:35.874Z,9.00
2022-12-26T16:17:14.490Z,9.10
2022-12-26T16:19:47.143Z,9.00
2022-12-26T16:22:44.159Z,8.90
2022-12-26T16:25:14.939Z,8.90
2022-12-26T16:27:42.863Z,8.80
2022-12-26T16:30:22.570Z,8.60
2022-12-26T16:32:51.125Z,8.80
2022-12-26T16:35:39.912Z,8.80
2022-12-26T16:38:11.365Z,8.90
2022-12-26T16:40:50.739Z,8.70
2022-12-26T16:43:29.775Z,8.80
2022-12-26T16:46:01.268Z,8.80
2022-12-26T16:48:30.738Z,9.50
2022-12-26T16:51:02.875Z,8.70
2022-12-26T16:53:35.447Z,8.80
2022-12-26T16:56:31.420Z,8.70
2022-12-26T16:59:17.671Z,8.60
2022-12-26T17:01:57.035Z,8.50
2022-12-26T17:04:32.614Z,8.50
2022-12-26T17:07:06.387Z,8.40
2022-12-26T17:09:41.558Z,8.30
2022-12-26T17:12:27.707Z,8.10
2022-12-26T17:14:56.867Z,8.30
2022-12-26T17:24:50.987Z,8.20
2022-12-26T17:32:39.658Z,8.10
2022-12-26T17:47:46.637Z,7.80
2022-12-26T17:52:41.383Z,7.70
2022-12-26T17:55:25.555Z,7.60
2022-12-26T18:02:52.335Z,7.40
2022-12-26T18:05:20.794Z,7.20
2022-12-26T18:07:50.716Z,7.10
2022-12-26T18:10:31.131Z,7.10
2022-12-26T18:15:27.545Z,6.80
2022-12-26T18:17:54.664Z,6.90
2022-12-26T18:20:23.993Z,6.90
2022-12-26T18:22:52.265Z,6.90
2022-12-26T18:25:23.817Z,6.80
2022-12-26T18:40:42.111Z,6.30
2022-12-26T18:43:09.340Z,6.40
2022-12-26T18:45:38.131Z,6.20
2022-12-26T18:55:28.512Z,6.10
2022-12-26T18:57:55.580Z,5.90
2022-12-26T19:05:28.692Z,5.90
2022-12-26T19:07:55.527Z,5.60
2022-12-26T19:12:51.094Z,5.30
2022-12-26T19:15:18.257Z,5.80
2022-12-26T19:22:53.596Z,5.60
2022-12-26T19:25:21.973Z,5.50
2022-12-26T19:27:49.651Z,5.50
2022-12-26T19:35:13.239Z,5.50
2022-12-26T19:40:08.452Z,5.30
2022-12-26T19:45:05.913Z,5.40
2022-12-26T20:12:06.766Z,5.40
2022-12-26T20:17:06.245Z,5.10
2022-12-26T20:22:01.750Z,5.00
2022-12-26T20:24:28.461Z,5.00
2022-12-26T20:26:55.156Z,5.20
2022-12-26T20:31:49.519Z,5.20
2022-12-26T20:36:43.453Z,4.80
2022-12-26T20:39:19.146Z,5.00
2022-12-26T20:44:14.252Z,5.00
2022-12-26T20:46:41.739Z,5.00
2022-12-26T20:49:09.759Z,4.90
2022-12-26T20:51:39.176Z,5.00
2022-12-26T20:54:07.799Z,4.90
2022-12-26T20:59:03.179Z,4.90
2022-12-26T21:01:30.402Z,4.90
2022-12-26T21:16:25.692Z,4.80
2022-12-26T21:21:22.903Z,4.70
2022-12-26T21:26:16.846Z,4.90
2022-12-26T21:28:43.517Z,4.30
2022-12-26T21:36:12.837Z,4.60
2022-12-26T21:38:40.244Z,4.60
2022-12-26T21:48:46.884Z,4.40
2022-12-26T21:56:14.146Z,3.90
2022-12-26T21:59:00.363Z,4.70
2022-12-26T22:04:13.717Z,4.10
2022-12-26T22:06:41.658Z,4.30
2022-12-26T22:09:09.312Z,4.50
2022-12-26T22:16:53.894Z,4.30
2022-12-26T22:21:47.704Z,4.20
2022-12-26T22:41:28.368Z,4.30
2022-12-26T22:43:55.085Z,5.20
2022-12-26T22:48:48.971Z,4.00
2022-12-26T22:53:47.331Z,3.90
2022-12-26T22:58:41.559Z,3.90
2022-12-26T23:01:17.553Z,4.00
2022-12-26T23:16:39.277Z,3.90
2022-12-26T23:22:01.170Z,3.90
2022-12-26T23:27:22.118Z,3.90
2022-12-26T23:35:03.254Z,3.70
2022-12-26T23:44:51.179Z,3.60
